Key Colony Beach, Florida
Current Conditions -  °F | °C
As of 5:53 PM on Monday 24 Nov 2014 (Local Time) from KMTH Reporting Station
Clear Clear  
Wind Chill: 80°   Ceiling: Unl
Heat Index: 87°   Visibility: 9mi
Dew Point: 79°   Wind: 5mph
Humidity: 96%   Direction: 150°SSE
Pressure: 29.97"   Gusts: NA
Location:  24.72°N, 81.02°W
Report Text: KMTH 242253Z AUTO 15004KT 9SM CLR 27/26 A2997 RMK AO2 SLP149 T02670261
Loading
Personal Weather Stations






























Interactive Weather Map New forecast layout! Learn more

10-Day Weather Forecast

Advertisements
Track Severe Weather on mobile